Time;durP1;ratioP1;P1;durP2;ratioP2;P2;SDS_P1;SDS_P2;PMS_P1;PMS_P2;Temp;Humidity;BMP_temperature;BMP_pressure;BME280_temperature;BME280_humidity;BME280_pressure;Samples;Min_cycle;Max_cycle;Signal;HPM_P1;HPM_P2
2023/08/03 00:00:24;;;;;;;4.70;2.83;;;23.50;98.90;;;;;;5051469;28;20399;-71
2023/08/03 00:02:52;;;;;;;7.38;2.70;;;23.50;99.00;;;;;;5060294;28;20501;-71
2023/08/03 00:05:19;;;;;;;4.95;2.63;;;23.40;98.90;;;;;;5047890;28;20413;-71
2023/08/03 00:07:49;;;;;;;6.32;2.58;;;23.40;99.10;;;;;;5051999;28;20426;-72
2023/08/03 00:10:18;;;;;;;4.72;2.80;;;23.40;99.30;;;;;;5057413;28;20428;-72
2023/08/03 00:12:49;;;;;;;6.63;2.83;;;23.40;99.50;;;;;;5064050;28;20424;-71
2023/08/03 00:15:17;;;;;;;5.30;2.95;;;23.30;99.70;;;;;;5069690;28;20500;-71
2023/08/03 00:17:44;;;;;;;4.68;2.53;;;23.30;99.90;;;;;;5055356;28;20420;-71
2023/08/03 00:20:11;;;;;;;5.55;2.70;;;23.30;99.90;;;;;;5061129;28;20408;-71
2023/08/03 00:22:37;;;;;;;5.57;2.95;;;23.30;99.90;;;;;;5055844;28;20409;-70
2023/08/03 00:25:04;;;;;;;5.70;3.10;;;23.30;99.90;;;;;;5059858;28;20427;-71
2023/08/03 00:27:31;;;;;;;5.15;2.80;;;23.30;99.90;;;;;;5059838;28;20487;-71
2023/08/03 00:29:57;;;;;;;6.50;2.90;;;23.30;99.90;;;;;;5059595;28;20446;-71
2023/08/03 00:32:24;;;;;;;7.70;3.00;;;23.20;99.90;;;;;;5061025;28;20464;-71
2023/08/03 00:34:50;;;;;;;6.05;3.08;;;23.20;99.90;;;;;;5055421;28;20408;-71
2023/08/03 00:37:16;;;;;;;6.13;2.70;;;23.20;99.90;;;;;;5053249;28;20411;-71
2023/08/03 00:39:42;;;;;;;6.63;2.80;;;23.20;99.90;;;;;;5044044;28;20423;-72
2023/08/03 00:42:09;;;;;;;5.53;2.90;;;23.20;99.90;;;;;;5059941;28;20423;-71
2023/08/03 00:44:35;;;;;;;6.20;2.90;;;23.10;99.90;;;;;;5057032;28;20446;-72
2023/08/03 00:47:02;;;;;;;6.40;3.00;;;23.10;99.90;;;;;;5059458;28;21149;-72
2023/08/03 00:49:28;;;;;;;6.03;3.08;;;23.10;99.90;;;;;;5054073;28;20420;-72
2023/08/03 00:51:58;;;;;;;5.95;2.85;;;23.10;99.90;;;;;;5054258;28;20490;-71
2023/08/03 00:54:25;;;;;;;7.90;3.33;;;23.10;99.90;;;;;;5092577;28;20419;-71
2023/08/03 00:56:52;;;;;;;5.70;3.20;;;23.10;99.90;;;;;;5062167;28;20900;-71
2023/08/03 00:59:18;;;;;;;6.38;2.97;;;23.10;99.90;;;;;;5057818;28;20413;-72
2023/08/03 01:01:44;;;;;;;5.53;3.05;;;23.10;99.90;;;;;;5052592;28;20422;-71
2023/08/03 01:04:11;;;;;;;4.95;3.20;;;23.10;99.90;;;;;;5051682;28;20404;-72
2023/08/03 01:06:37;;;;;;;4.68;3.00;;;23.20;99.90;;;;;;5057447;28;20419;-71
2023/08/03 01:09:06;;;;;;;7.80;2.90;;;23.20;99.90;;;;;;5055556;28;20423;-71
2023/08/03 01:11:33;;;;;;;4.88;2.97;;;23.30;99.90;;;;;;5053926;28;20408;-71
2023/08/03 01:14:00;;;;;;;5.43;3.03;;;23.30;99.90;;;;;;5057028;28;20771;-72
2023/08/03 01:16:28;;;;;;;5.60;3.05;;;23.30;99.90;;;;;;5047973;28;20421;-72
2023/08/03 01:18:55;;;;;;;6.38;3.00;;;23.30;99.90;;;;;;5055886;28;20451;-72
2023/08/03 01:21:23;;;;;;;7.20;3.42;;;23.30;99.90;;;;;;5052584;28;20407;-71
2023/08/03 01:23:50;;;;;;;6.50;3.58;;;23.30;99.90;;;;;;5054244;28;20419;-71
2023/08/03 01:26:16;;;;;;;6.82;3.20;;;23.30;99.90;;;;;;5056578;28;20428;-71
2023/08/03 01:28:42;;;;;;;6.05;3.08;;;23.20;99.90;;;;;;5057216;28;20795;-71
2023/08/03 01:31:09;;;;;;;11.27;3.35;;;23.20;99.90;;;;;;5057281;28;20408;-71
2023/08/03 01:33:36;;;;;;;5.97;3.00;;;23.20;99.90;;;;;;5056466;28;20419;-71
2023/08/03 01:36:03;;;;;;;8.13;3.30;;;23.20;99.90;;;;;;5059594;28;20410;-71
2023/08/03 01:38:29;;;;;;;6.57;2.92;;;23.20;99.90;;;;;;5052162;28;20459;-71
2023/08/03 01:40:55;;;;;;;9.68;3.40;;;23.20;99.90;;;;;;5055170;28;20564;-71
2023/08/03 01:43:22;;;;;;;7.30;3.20;;;23.30;99.90;;;;;;5055831;28;20403;-71
2023/08/03 01:45:48;;;;;;;7.65;3.17;;;23.20;99.90;;;;;;5054603;28;20407;-71
2023/08/03 01:48:14;;;;;;;7.38;3.45;;;23.20;99.90;;;;;;5049138;28;20835;-71
2023/08/03 01:50:40;;;;;;;6.53;3.17;;;23.10;99.90;;;;;;5059370;28;20424;-71
2023/08/03 01:53:06;;;;;;;5.45;3.30;;;23.10;99.90;;;;;;5056842;28;20406;-71
2023/08/03 01:55:33;;;;;;;6.00;3.20;;;23.10;99.90;;;;;;5057867;28;20411;-71
2023/08/03 01:57:59;;;;;;;6.20;3.20;;;23.00;99.90;;;;;;5059127;28;20450;-70
2023/08/03 02:00:25;;;;;;;7.90;3.30;;;23.00;99.90;;;;;;5062143;28;20404;-72
2023/08/03 02:02:52;;;;;;;5.93;3.33;;;23.00;99.90;;;;;;5058671;28;20444;-71
2023/08/03 02:05:18;;;;;;;6.40;3.30;;;23.00;99.90;;;;;;5060050;28;20905;-71
2023/08/03 02:07:54;;;;;;;7.55;3.10;;;23.00;99.90;;;;;;5043420;28;20417;-72
2023/08/03 02:10:23;;;;;;;5.70;3.13;;;23.00;99.90;;;;;;5056069;28;20426;-72
2023/08/03 02:12:49;;;;;;;9.50;3.10;;;23.00;99.90;;;;;;5062101;28;20414;-72
2023/08/03 02:15:16;;;;;;;6.88;2.95;;;23.00;99.90;;;;;;5054679;28;20403;-72
2023/08/03 02:17:43;;;;;;;4.87;2.90;;;23.00;99.90;;;;;;5062752;28;20432;-72
2023/08/03 02:20:11;;;;;;;7.72;3.13;;;23.00;99.90;;;;;;5058198;28;20405;-72
2023/08/03 02:22:37;;;;;;;8.73;3.30;;;23.00;99.90;;;;;;5060766;28;20882;-72
2023/08/03 02:25:05;;;;;;;8.25;3.17;;;23.00;99.90;;;;;;5054708;28;20549;-72
2023/08/03 02:27:31;;;;;;;10.38;3.38;;;23.00;99.90;;;;;;5063067;28;20403;-72
2023/08/03 02:29:58;;;;;;;7.40;3.60;;;23.00;99.90;;;;;;5040730;28;20992;-72
2023/08/03 02:32:25;;;;;;;7.90;3.30;;;23.00;99.90;;;;;;5069088;28;20404;-72
2023/08/03 02:34:51;;;;;;;8.18;3.58;;;23.00;99.90;;;;;;5061504;28;20407;-72
2023/08/03 02:37:17;;;;;;;9.25;3.58;;;23.00;99.90;;;;;;5043690;28;20419;-72
2023/08/03 02:39:43;;;;;;;8.55;3.50;;;23.10;99.90;;;;;;5055418;28;20443;-72
2023/08/03 02:42:09;;;;;;;6.95;3.70;;;23.10;99.90;;;;;;5060128;28;20446;-72
2023/08/03 02:44:35;;;;;;;8.70;3.33;;;23.00;99.90;;;;;;5058226;28;20471;-72
2023/08/03 02:47:03;;;;;;;6.68;3.30;;;23.10;99.90;;;;;;5060553;28;20413;-72
2023/08/03 02:49:30;;;;;;;5.97;3.10;;;23.10;99.90;;;;;;5061888;28;20443;-72
2023/08/03 02:51:56;;;;;;;10.87;3.60;;;23.00;99.90;;;;;;5061264;28;20407;-72
2023/08/03 02:54:22;;;;;;;5.80;3.07;;;23.00;99.90;;;;;;5062373;28;20395;-72
2023/08/03 02:56:48;;;;;;;6.35;2.95;;;23.00;99.90;;;;;;5055566;28;20435;-72
2023/08/03 02:59:18;;;;;;;5.25;2.80;;;23.00;99.90;;;;;;5058916;28;20425;-71
2023/08/03 03:01:45;;;;;;;6.95;3.20;;;23.00;99.90;;;;;;5062215;28;20571;-72
2023/08/03 03:04:11;;;;;;;5.70;2.97;;;23.00;99.90;;;;;;5059951;28;20437;-72
2023/08/03 03:06:38;;;;;;;6.23;3.30;;;23.00;99.90;;;;;;5060691;28;20426;-71
2023/08/03 03:09:05;;;;;;;5.60;2.90;;;23.00;99.90;;;;;;5074660;28;20461;-72
2023/08/03 03:11:31;;;;;;;8.23;3.25;;;22.90;99.90;;;;;;5058544;28;20403;-72
2023/08/03 03:13:57;;;;;;;4.22;3.00;;;22.90;99.90;;;;;;5044928;28;20995;-72
2023/08/03 03:16:25;;;;;;;6.15;3.20;;;22.90;99.90;;;;;;5056719;28;20424;-72
2023/08/03 03:18:52;;;;;;;9.45;3.20;;;22.80;99.90;;;;;;5057901;28;20414;-72
2023/08/03 03:21:19;;;;;;;7.78;3.05;;;22.80;99.90;;;;;;5051044;28;20482;-72
2023/08/03 03:23:47;;;;;;;4.97;3.17;;;22.70;99.90;;;;;;5058256;28;20407;-72
2023/08/03 03:26:13;;;;;;;8.45;3.40;;;22.70;99.90;;;;;;5067864;28;20512;-72
2023/08/03 03:28:41;;;;;;;5.75;3.70;;;22.70;99.90;;;;;;5055748;28;20783;-72
2023/08/03 03:31:08;;;;;;;8.27;3.57;;;22.70;99.90;;;;;;5058484;28;20913;-72
2023/08/03 03:33:34;;;;;;;10.70;3.63;;;22.70;99.90;;;;;;5057106;28;20443;-72
2023/08/03 03:36:00;;;;;;;8.35;3.83;;;22.70;99.90;;;;;;5055798;28;20411;-72
2023/08/03 03:38:26;;;;;;;7.10;3.67;;;22.80;99.90;;;;;;5057419;28;20545;-72
2023/08/03 03:40:52;;;;;;;8.63;4.18;;;22.80;99.90;;;;;;5043268;28;20407;-72
2023/08/03 03:43:19;;;;;;;7.78;4.00;;;22.90;99.90;;;;;;5058208;28;20413;-72
2023/08/03 03:45:45;;;;;;;6.65;3.88;;;22.90;99.90;;;;;;5060336;28;20593;-72
2023/08/03 03:48:12;;;;;;;6.43;4.13;;;22.90;99.90;;;;;;5058452;28;20741;-72
2023/08/03 03:50:39;;;;;;;7.57;4.30;;;23.00;99.90;;;;;;5060726;28;20431;-72
2023/08/03 03:53:05;;;;;;;12.77;4.78;;;23.00;99.90;;;;;;5071971;28;20938;-72
2023/08/03 03:55:31;;;;;;;8.73;4.47;;;23.00;99.90;;;;;;5056733;28;20505;-72
2023/08/03 03:57:58;;;;;;;7.68;4.10;;;23.00;99.90;;;;;;5055724;28;20437;-72
2023/08/03 04:00:25;;;;;;;7.87;4.10;;;23.00;99.90;;;;;;5052059;28;20754;-72
2023/08/03 04:02:52;;;;;;;7.97;3.90;;;23.00;99.90;;;;;;5056709;28;20417;-72
2023/08/03 04:05:18;;;;;;;5.75;4.10;;;23.00;99.90;;;;;;5056562;28;21029;-72
2023/08/03 04:07:44;;;;;;;9.38;4.10;;;23.00;99.90;;;;;;5053599;28;20412;-72
2023/08/03 04:10:10;;;;;;;5.00;4.00;;;23.10;99.90;;;;;;5088907;28;20426;-72
2023/08/03 04:12:36;;;;;;;7.88;4.13;;;23.10;99.90;;;;;;5061171;28;20526;-72
2023/08/03 04:15:03;;;;;;;8.73;4.00;;;23.10;99.90;;;;;;5056162;28;20781;-72
2023/08/03 04:17:29;;;;;;;8.15;4.20;;;23.10;99.90;;;;;;5057869;28;20949;-72
2023/08/03 04:19:56;;;;;;;8.30;4.10;;;23.10;99.90;;;;;;5058300;28;20613;-72
2023/08/03 04:22:22;;;;;;;6.67;4.03;;;23.10;99.90;;;;;;5057136;28;21040;-72
2023/08/03 04:24:48;;;;;;;5.68;3.90;;;23.00;99.90;;;;;;5057048;28;20419;-72
2023/08/03 04:27:14;;;;;;;7.30;4.05;;;23.00;99.90;;;;;;5070236;28;20500;-72
2023/08/03 04:29:41;;;;;;;6.90;4.10;;;23.00;99.90;;;;;;5057542;28;20421;-72
2023/08/03 04:32:07;;;;;;;6.82;3.78;;;23.00;99.90;;;;;;5062244;28;21250;-72
2023/08/03 04:34:33;;;;;;;6.95;3.60;;;23.00;99.90;;;;;;5058940;28;20487;-72
2023/08/03 04:37:00;;;;;;;7.00;3.50;;;23.00;99.90;;;;;;5059364;28;20890;-72
2023/08/03 04:39:26;;;;;;;7.75;3.53;;;23.00;99.90;;;;;;5049348;28;20418;-72
2023/08/03 04:41:52;;;;;;;7.82;3.70;;;23.00;99.90;;;;;;5061311;28;20475;-72
2023/08/03 04:44:18;;;;;;;5.18;3.15;;;23.00;99.90;;;;;;5057838;28;20439;-72
2023/08/03 04:46:44;;;;;;;6.07;2.90;;;23.00;99.90;;;;;;5057589;28;20421;-72
2023/08/03 04:49:13;;;;;;;7.25;2.67;;;23.10;99.90;;;;;;5055811;28;20791;-72
2023/08/03 04:51:39;;;;;;;7.97;2.85;;;23.10;99.90;;;;;;5057912;28;20408;-72
2023/08/03 04:54:05;;;;;;;4.57;2.80;;;23.20;99.90;;;;;;5062401;28;20445;-72
2023/08/03 04:56:32;;;;;;;5.57;2.80;;;23.20;99.90;;;;;;5054358;28;20506;-72
2023/08/03 04:58:58;;;;;;;5.88;2.78;;;23.30;99.90;;;;;;5055500;28;20847;-72
2023/08/03 05:01:24;;;;;;;5.95;2.90;;;23.40;99.90;;;;;;5059604;28;20463;-72
2023/08/03 05:03:52;;;;;;;4.20;2.63;;;23.40;99.90;;;;;;5052204;28;20412;-72
2023/08/03 05:06:18;;;;;;;4.50;2.43;;;23.50;99.90;;;;;;5050148;28;20425;-72
2023/08/03 05:08:44;;;;;;;5.20;2.70;;;23.50;99.90;;;;;;5057027;28;20423;-72
2023/08/03 05:11:10;;;;;;;5.00;2.60;;;23.60;99.90;;;;;;5058367;28;20404;-72
2023/08/03 05:13:37;;;;;;;4.88;2.72;;;23.60;99.90;;;;;;5053120;28;20412;-72
2023/08/03 05:16:03;;;;;;;4.40;2.63;;;23.70;99.90;;;;;;5055484;28;20408;-72
2023/08/03 05:18:30;;;;;;;4.90;2.50;;;23.80;99.90;;;;;;5056424;28;20407;-72
2023/08/03 05:20:56;;;;;;;4.00;2.40;;;23.80;99.90;;;;;;5056231;28;20419;-72
2023/08/03 05:23:23;;;;;;;5.85;2.70;;;23.90;99.90;;;;;;5058994;28;20408;-72
2023/08/03 05:25:54;;;;;;;3.40;2.33;;;23.90;99.90;;;;;;5059231;28;20415;-72
2023/08/03 05:28:21;;;;;;;4.05;2.90;;;24.00;99.90;;;;;;5059052;28;20953;-72
2023/08/03 05:30:48;;;;;;;7.57;2.85;;;24.00;99.90;;;;;;5041673;28;20431;-72
2023/08/03 05:33:14;;;;;;;4.05;2.70;;;24.10;99.90;;;;;;5054908;28;20403;-72
2023/08/03 05:35:41;;;;;;;4.28;2.50;;;24.10;99.90;;;;;;5056517;28;20991;-72
2023/08/03 05:38:08;;;;;;;4.78;2.50;;;24.20;99.90;;;;;;5057391;28;20415;-72
2023/08/03 05:40:34;;;;;;;5.22;2.45;;;24.30;99.90;;;;;;5047177;28;20419;-72
2023/08/03 05:43:00;;;;;;;4.25;2.55;;;24.30;99.90;;;;;;5067632;28;20813;-72
2023/08/03 05:45:49;;;;;;;5.40;2.78;;;24.30;99.90;;;;;;5055706;28;20419;-72
2023/08/03 05:48:18;;;;;;;4.20;2.63;;;24.40;99.90;;;;;;5055397;28;20445;-72
2023/08/03 05:50:49;;;;;;;3.40;2.47;;;24.50;99.90;;;;;;5055580;28;20408;-72
2023/08/03 05:53:17;;;;;;;3.50;2.17;;;24.50;99.90;;;;;;5058179;28;20873;-72
2023/08/03 05:55:46;;;;;;;4.77;2.50;;;24.50;99.90;;;;;;5056120;28;20906;-72
2023/08/03 05:58:16;;;;;;;4.38;2.50;;;24.60;99.90;;;;;;5038390;28;20492;-71
2023/08/03 06:00:46;;;;;;;3.45;2.30;;;24.70;99.90;;;;;;5056016;28;20423;-71
2023/08/03 06:03:16;;;;;;;3.97;2.30;;;24.70;99.90;;;;;;5057762;28;20430;-72
2023/08/03 06:05:48;;;;;;;3.10;2.30;;;24.80;99.90;;;;;;5057297;28;20417;-72
2023/08/03 06:08:28;;;;;;;3.60;2.30;;;24.80;99.10;;;;;;5053815;28;20457;-72
2023/08/03 06:11:02;;;;;;;3.20;2.30;;;24.90;97.90;;;;;;5058300;28;20451;-72
2023/08/03 06:13:35;;;;;;;3.60;2.40;;;25.00;96.20;;;;;;5053164;28;20550;-72
2023/08/03 06:16:12;;;;;;;2.53;2.00;;;25.10;95.90;;;;;;5058589;28;20810;-72
2023/08/03 06:18:53;;;;;;;3.13;2.20;;;25.10;95.20;;;;;;5054980;28;20740;-72
2023/08/03 06:21:22;;;;;;;2.63;2.10;;;25.20;94.80;;;;;;5059796;28;20505;-72
2023/08/03 06:23:55;;;;;;;4.40;2.45;;;25.30;94.70;;;;;;5058712;28;21148;-72
2023/08/03 06:26:22;;;;;;;2.47;2.20;;;25.40;94.90;;;;;;5052677;28;20467;-72
2023/08/03 06:28:53;;;;;;;3.10;2.00;;;25.50;94.60;;;;;;5053632;28;20937;-72
2023/08/03 06:31:24;;;;;;;3.17;2.40;;;25.50;94.90;;;;;;5056369;28;20445;-72
2023/08/03 06:33:50;;;;;;;6.05;2.20;;;25.60;94.40;;;;;;5087357;28;20432;-72
2023/08/03 06:36:25;;;;;;;3.25;2.50;;;25.70;94.40;;;;;;5054035;28;20436;-73
2023/08/03 06:38:51;;;;;;;3.78;2.35;;;25.70;94.60;;;;;;5039544;28;20555;-72
2023/08/03 06:41:18;;;;;;;4.38;2.10;;;25.90;94.50;;;;;;5049856;28;20832;-72
2023/08/03 06:43:44;;;;;;;4.38;2.20;;;26.00;94.10;;;;;;5036457;28;20417;-72
2023/08/03 06:46:11;;;;;;;3.65;2.20;;;26.00;94.40;;;;;;5053510;28;20680;-73
2023/08/03 06:48:37;;;;;;;4.43;2.28;;;26.10;94.60;;;;;;5059080;28;20473;-72
2023/08/03 06:51:04;;;;;;;2.90;2.30;;;26.20;93.50;;;;;;5057100;28;20477;-72
2023/08/03 06:53:32;;;;;;;4.40;2.50;;;26.30;92.30;;;;;;5056040;28;20894;-72
2023/08/03 06:55:58;;;;;;;3.10;2.20;;;26.30;92.80;;;;;;5058197;28;20473;-72
2023/08/03 06:58:24;;;;;;;3.67;2.30;;;26.40;92.70;;;;;;5056268;28;20916;-72
2023/08/03 07:00:51;;;;;;;4.20;2.20;;;26.50;93.20;;;;;;5046637;28;20458;-72
2023/08/03 07:03:17;;;;;;;3.03;2.00;;;26.60;92.30;;;;;;5043838;28;21023;-72
2023/08/03 07:05:44;;;;;;;3.80;2.10;;;26.70;92.00;;;;;;5057075;28;20405;-72
2023/08/03 07:08:11;;;;;;;5.13;2.30;;;26.70;92.80;;;;;;5060104;28;20474;-72
2023/08/03 07:10:37;;;;;;;5.85;2.20;;;26.90;92.80;;;;;;5053331;28;20508;-72
2023/08/03 07:13:07;;;;;;;3.58;2.33;;;27.00;93.30;;;;;;5059931;28;20759;-73
2023/08/03 07:15:35;;;;;;;6.28;2.40;;;27.20;93.10;;;;;;5051528;28;20415;-72
2023/08/03 07:18:06;;;;;;;3.33;2.40;;;27.30;94.40;;;;;;5055071;28;20404;-72
2023/08/03 07:20:34;;;;;;;4.85;2.50;;;27.40;95.30;;;;;;5057223;28;20474;-72
2023/08/03 07:23:00;;;;;;;5.00;2.30;;;27.50;95.20;;;;;;5061347;28;20415;-72
2023/08/03 07:25:27;;;;;;;6.28;2.50;;;27.60;95.50;;;;;;5072034;28;20419;-72
2023/08/03 07:27:55;;;;;;;4.07;2.28;;;27.80;97.10;;;;;;5059612;28;20419;-72
2023/08/03 07:30:22;;;;;;;5.22;2.70;;;27.80;97.50;;;;;;5055350;28;20431;-72
2023/08/03 07:32:48;;;;;;;5.20;2.35;;;27.90;97.80;;;;;;5059509;28;20416;-72
2023/08/03 07:35:14;;;;;;;5.95;2.47;;;28.10;98.00;;;;;;5057914;28;20412;-72
2023/08/03 07:37:41;;;;;;;4.78;2.45;;;28.10;97.50;;;;;;5055638;28;20400;-72
2023/08/03 07:40:08;;;;;;;5.10;2.40;;;28.30;96.30;;;;;;5058478;28;20910;-72
2023/08/03 07:42:34;;;;;;;5.35;2.67;;;28.40;96.60;;;;;;5056476;28;20832;-72
2023/08/03 07:45:01;;;;;;;5.13;2.63;;;28.50;97.90;;;;;;5056851;28;20423;-72
2023/08/03 07:47:28;;;;;;;5.97;2.70;;;28.60;98.00;;;;;;5057263;28;20415;-72
2023/08/03 07:49:55;;;;;;;5.73;2.77;;;28.70;99.10;;;;;;5056138;28;20416;-72
2023/08/03 07:52:22;;;;;;;7.38;2.95;;;28.80;99.90;;;;;;5039011;28;20498;-72
2023/08/03 07:54:48;;;;;;;7.15;2.67;;;28.90;99.90;;;;;;5052627;28;20407;-73
2023/08/03 07:57:17;;;;;;;8.13;2.88;;;29.10;99.90;;;;;;5058882;28;20993;-72
2023/08/03 07:59:49;;;;;;;4.97;2.90;;;29.20;99.90;;;;;;5060886;28;20438;-72
2023/08/03 08:02:16;;;;;;;8.13;2.95;;;29.20;99.90;;;;;;5053482;28;20517;-72
2023/08/03 08:04:42;;;;;;;7.15;2.80;;;29.30;99.90;;;;;;5062161;28;20403;-72
2023/08/03 08:07:08;;;;;;;5.85;2.75;;;29.30;99.90;;;;;;5073142;28;20423;-72
2023/08/03 08:09:34;;;;;;;5.80;2.60;;;29.40;99.90;;;;;;5059536;28;20430;-72
2023/08/03 08:12:01;;;;;;;5.47;2.90;;;29.50;99.90;;;;;;5059449;28;20469;-72
2023/08/03 08:14:27;;;;;;;5.97;2.70;;;29.50;99.90;;;;;;5072756;28;20399;-72
2023/08/03 08:16:54;;;;;;;8.23;2.72;;;29.60;99.90;;;;;;5063433;28;20600;-72
2023/08/03 08:19:20;;;;;;;4.60;2.67;;;29.70;99.80;;;;;;5069724;28;21139;-72
2023/08/03 08:21:46;;;;;;;5.07;2.70;;;29.80;99.90;;;;;;5036257;28;20413;-72
2023/08/03 08:24:12;;;;;;;5.30;2.70;;;29.90;99.90;;;;;;5053651;28;20415;-72
2023/08/03 08:26:39;;;;;;;5.32;2.80;;;29.90;99.90;;;;;;5042302;28;20470;-72
2023/08/03 08:29:05;;;;;;;6.18;2.70;;;30.10;99.90;;;;;;5043166;28;20415;-72
2023/08/03 08:31:32;;;;;;;6.28;2.75;;;30.20;99.50;;;;;;5058077;28;20412;-72
2023/08/03 08:33:59;;;;;;;5.15;2.90;;;30.20;99.30;;;;;;5040446;28;20457;-72
2023/08/03 08:36:25;;;;;;;6.35;2.58;;;30.30;99.50;;;;;;5071888;28;20902;-72
2023/08/03 08:38:51;;;;;;;4.47;2.58;;;30.40;99.30;;;;;;5057902;28;20914;-72
2023/08/03 08:41:17;;;;;;;4.45;3.00;;;30.50;98.40;;;;;;5052894;28;20429;-73
2023/08/03 08:43:44;;;;;;;5.68;2.47;;;30.60;98.40;;;;;;5056767;28;21765;-72
2023/08/03 08:46:10;;;;;;;4.97;2.83;;;30.60;98.20;;;;;;5042414;28;20455;-72
2023/08/03 08:48:36;;;;;;;6.88;2.80;;;30.70;97.90;;;;;;5054354;28;20407;-73
2023/08/03 08:51:05;;;;;;;6.53;2.88;;;30.70;98.30;;;;;;5053621;28;20434;-72
2023/08/03 08:53:31;;;;;;;6.35;2.70;;;30.90;98.50;;;;;;5057676;28;20819;-72
2023/08/03 08:55:59;;;;;;;5.38;2.53;;;30.90;98.10;;;;;;5056312;28;20488;-73
2023/08/03 08:58:27;;;;;;;4.97;2.80;;;31.00;97.60;;;;;;5048741;28;20789;-72
2023/08/03 09:01:03;;;;;;;4.85;2.65;;;31.10;97.40;;;;;;5057665;28;20411;-72
2023/08/03 09:03:47;;;;;;;5.88;2.70;;;31.20;97.20;;;;;;5052719;28;20408;-72
2023/08/03 09:06:13;;;;;;;4.22;2.70;;;31.20;97.10;;;;;;5054382;28;20938;-72
2023/08/03 09:08:53;;;;;;;6.27;2.60;;;31.30;96.80;;;;;;5056987;28;20417;-72
2023/08/03 09:11:40;;;;;;;5.07;2.83;;;31.40;96.70;;;;;;5059298;28;21334;-72
2023/08/03 09:14:09;;;;;;;5.03;2.72;;;31.50;97.00;;;;;;5057748;28;20820;-72
2023/08/03 09:16:37;;;;;;;4.78;3.03;;;31.60;97.00;;;;;;5058182;28;20404;-72
2023/08/03 09:19:03;;;;;;;9.13;2.70;;;31.60;96.20;;;;;;5054329;28;20419;-72
2023/08/03 09:21:30;;;;;;;4.40;2.80;;;31.70;95.80;;;;;;5053209;28;20497;-72
2023/08/03 09:23:57;;;;;;;5.43;2.75;;;31.70;96.20;;;;;;5052332;28;20669;-72
2023/08/03 09:26:24;;;;;;;4.88;2.55;;;31.80;96.20;;;;;;5053943;28;20405;-72
2023/08/03 09:28:51;;;;;;;4.85;2.60;;;31.90;95.70;;;;;;5048726;28;20447;-72
2023/08/03 09:31:24;;;;;;;5.05;2.75;;;32.00;95.20;;;;;;5052823;28;20403;-73
2023/08/03 09:33:59;;;;;;;5.17;2.80;;;32.10;95.70;;;;;;5054865;28;20411;-73
2023/08/03 09:36:29;;;;;;;5.65;2.95;;;32.20;95.70;;;;;;5051320;28;20404;-73
2023/08/03 09:39:16;;;;;;;6.05;3.13;;;32.20;95.30;;;;;;5050248;28;20400;-73
2023/08/03 09:41:43;;;;;;;4.70;2.60;;;32.40;95.70;;;;;;5050227;28;20767;-72
2023/08/03 09:44:13;;;;;;;6.15;2.80;;;32.40;95.10;;;;;;5052746;28;20399;-72
2023/08/03 09:46:40;;;;;;;5.45;2.97;;;32.50;94.90;;;;;;5053477;28;20408;-72
2023/08/03 09:49:07;;;;;;;5.40;2.75;;;32.60;95.20;;;;;;5043260;28;20536;-72
2023/08/03 09:51:36;;;;;;;5.67;2.87;;;32.70;95.80;;;;;;5051688;28;20504;-72
2023/08/03 09:54:30;;;;;;;7.38;3.10;;;32.90;96.20;;;;;;5055329;28;20414;-72
2023/08/03 09:57:03;;;;;;;5.43;2.85;;;32.90;96.20;;;;;;5031253;28;20412;-72
2023/08/03 09:59:35;;;;;;;5.72;3.20;;;32.90;96.50;;;;;;5052742;28;20391;-72
2023/08/03 10:02:09;;;;;;;7.68;2.90;;;32.90;96.40;;;;;;5051242;28;20495;-72
2023/08/03 10:04:43;;;;;;;7.05;2.90;;;32.90;95.90;;;;;;5046509;28;20917;-72
2023/08/03 10:07:16;;;;;;;6.07;2.90;;;32.90;96.00;;;;;;5055284;28;20401;-72
2023/08/03 10:09:56;;;;;;;9.40;3.10;;;32.90;96.10;;;;;;5047559;28;20834;-72
2023/08/03 10:12:43;;;;;;;4.95;3.17;;;33.00;96.40;;;;;;5053627;28;20419;-72
2023/08/03 10:15:14;;;;;;;6.60;2.90;;;33.00;96.30;;;;;;5048085;28;20416;-72
2023/08/03 10:17:42;;;;;;;6.00;2.70;;;33.00;96.70;;;;;;5047158;28;20415;-72
2023/08/03 10:20:09;;;;;;;5.13;3.15;;;33.10;97.20;;;;;;5055928;28;20937;-72
2023/08/03 10:22:36;;;;;;;5.32;3.03;;;33.10;98.50;;;;;;5053718;28;20475;-72
2023/08/03 10:25:20;;;;;;;4.93;3.08;;;33.20;98.00;;;;;;5053756;28;20424;-72
2023/08/03 10:28:13;;;;;;;6.53;3.13;;;33.20;97.10;;;;;;5053806;28;20407;-72
2023/08/03 10:31:19;;;;;;;6.55;3.20;;;33.20;98.30;;;;;;5055046;28;20413;-72
2023/08/03 10:33:51;;;;;;;8.88;3.20;;;33.10;97.60;;;;;;5052344;28;20411;-72
2023/08/03 10:36:30;;;;;;;8.05;3.28;;;33.10;97.70;;;;;;5052939;28;20831;-72
2023/08/03 10:39:01;;;;;;;4.15;2.83;;;33.00;97.30;;;;;;5058396;28;20472;-72
2023/08/03 10:41:37;;;;;;;5.68;3.20;;;32.90;97.70;;;;;;5045124;28;20460;-72
2023/08/03 10:44:07;;;;;;;6.73;3.23;;;32.90;98.80;;;;;;5042510;28;20928;-72
2023/08/03 10:46:38;;;;;;;6.80;3.30;;;32.90;99.70;;;;;;5053004;28;20973;-72
2023/08/03 10:52:11;;;;;;;7.97;3.70;;;32.80;99.90;;;;;;5053840;28;20788;-72
2023/08/03 10:54:38;;;;;;;6.60;3.50;;;32.70;99.90;;;;;;5053351;28;21064;-72
2023/08/03 10:57:20;;;;;;;5.40;3.30;;;32.70;99.90;;;;;;5049005;28;20411;-72
2023/08/03 10:59:49;;;;;;;6.55;3.10;;;32.70;98.30;;;;;;5047965;28;20412;-72
2023/08/03 11:02:31;;;;;;;6.05;3.05;;;32.70;98.40;;;;;;5051721;28;21280;-72
2023/08/03 11:05:01;;;;;;;4.20;3.15;;;32.70;98.30;;;;;;5052161;28;20411;-72
2023/08/03 11:07:46;;;;;;;5.72;3.08;;;32.80;98.70;;;;;;5050424;28;20411;-72
2023/08/03 11:10:16;;;;;;;5.80;3.22;;;32.80;98.30;;;;;;5058790;28;20423;-72
2023/08/03 11:12:44;;;;;;;6.20;3.15;;;32.90;97.70;;;;;;5044433;28;20468;-72
2023/08/03 11:15:16;;;;;;;6.75;3.17;;;32.90;97.60;;;;;;5055210;28;21226;-72
2023/08/03 11:17:49;;;;;;;6.25;3.30;;;32.90;98.40;;;;;;5066761;28;20507;-72
2023/08/03 11:20:15;;;;;;;7.07;3.30;;;32.80;97.50;;;;;;5052348;28;20787;-72
2023/08/03 11:22:42;;;;;;;6.35;3.38;;;32.90;98.50;;;;;;5053278;28;20416;-72
2023/08/03 11:25:09;;;;;;;8.27;3.20;;;32.80;98.50;;;;;;5052555;28;21106;-72
2023/08/03 11:27:40;;;;;;;4.53;3.03;;;32.80;97.40;;;;;;5050467;28;20489;-72
2023/08/03 11:30:09;;;;;;;7.35;3.60;;;32.80;97.80;;;;;;5052935;28;20442;-72
2023/08/03 11:32:36;;;;;;;6.63;3.20;;;32.80;98.90;;;;;;5054172;28;21276;-72
2023/08/03 11:35:09;;;;;;;3.80;2.83;;;32.80;97.80;;;;;;5051462;28;20421;-72
2023/08/03 11:37:37;;;;;;;5.43;3.22;;;32.70;97.30;;;;;;5052471;28;20403;-72
2023/08/03 11:40:06;;;;;;;8.02;3.38;;;32.70;96.90;;;;;;5055064;28;20407;-72
2023/08/03 11:42:35;;;;;;;7.65;3.33;;;32.70;97.20;;;;;;5042129;28;20415;-72
2023/08/03 11:45:02;;;;;;;6.18;2.97;;;32.70;96.70;;;;;;5055198;28;20428;-72
2023/08/03 11:47:46;;;;;;;5.63;3.00;;;32.70;95.90;;;;;;5042447;28;20454;-72
2023/08/03 11:50:20;;;;;;;10.50;3.03;;;32.70;95.90;;;;;;5054434;28;20407;-72
2023/08/03 11:52:57;;;;;;;6.57;3.17;;;32.70;95.20;;;;;;5055906;28;20415;-72
2023/08/03 11:55:38;;;;;;;9.13;3.20;;;32.80;95.80;;;;;;5050492;28;20465;-72
2023/08/03 11:58:10;;;;;;;4.23;2.80;;;32.70;95.00;;;;;;5051120;28;20425;-72
2023/08/03 12:00:43;;;;;;;7.07;3.05;;;32.70;94.40;;;;;;5046472;28;20426;-72
2023/08/03 12:03:10;;;;;;;7.20;3.17;;;32.70;94.20;;;;;;5066297;28;20408;-72
2023/08/03 12:05:51;;;;;;;7.45;2.97;;;32.70;95.40;;;;;;5051229;28;20493;-73
2023/08/03 12:08:22;;;;;;;5.80;3.00;;;32.70;95.40;;;;;;5084957;28;20469;-72
2023/08/03 12:11:03;;;;;;;5.72;2.80;;;32.70;95.60;;;;;;5052498;28;20809;-72
2023/08/03 12:13:29;;;;;;;4.68;2.92;;;32.70;94.70;;;;;;5050449;28;20538;-72
2023/08/03 12:15:56;;;;;;;6.88;2.92;;;32.70;94.80;;;;;;5051282;28;20465;-72
2023/08/03 12:18:24;;;;;;;5.75;2.75;;;32.70;94.20;;;;;;5054194;28;20785;-72
2023/08/03 12:20:50;;;;;;;5.40;2.55;;;32.70;93.50;;;;;;5058179;28;20412;-72
2023/08/03 12:23:21;;;;;;;3.92;2.75;;;32.70;92.90;;;;;;5056875;28;20784;-72
2023/08/03 12:25:47;;;;;;;4.07;2.50;;;32.80;91.50;;;;;;5056526;28;20949;-72
2023/08/03 12:28:14;;;;;;;7.20;2.70;;;32.70;90.90;;;;;;5072818;28;20480;-72
2023/08/03 12:30:41;;;;;;;5.18;2.90;;;32.80;91.40;;;;;;5055140;28;20801;-72
2023/08/03 12:33:10;;;;;;;3.63;2.60;;;32.80;91.70;;;;;;5058126;28;20506;-72
2023/08/03 12:35:36;;;;;;;5.15;2.60;;;32.80;91.20;;;;;;5057408;28;21467;-72
2023/08/03 12:38:03;;;;;;;4.50;2.60;;;32.90;90.70;;;;;;5052724;28;21163;-72
2023/08/03 12:40:29;;;;;;;3.77;2.30;;;32.80;89.20;;;;;;5058856;28;20424;-72
2023/08/03 12:42:56;;;;;;;6.13;2.60;;;32.80;88.70;;;;;;5053417;28;20438;-72
2023/08/03 12:45:24;;;;;;;4.35;2.75;;;32.80;90.10;;;;;;5056922;28;20415;-72
2023/08/03 12:47:54;;;;;;;5.15;2.95;;;32.80;89.80;;;;;;5048260;28;20517;-72
2023/08/03 12:50:21;;;;;;;5.20;2.65;;;32.70;90.50;;;;;;5051877;28;21120;-72
2023/08/03 12:52:47;;;;;;;4.53;2.45;;;32.70;88.80;;;;;;5055905;28;20408;-72
2023/08/03 12:55:13;;;;;;;5.25;2.50;;;32.70;88.10;;;;;;5048215;28;20405;-72